Flight Track Log - Related Links

Times and Time Zones

All times are in EST time to prevent confusion due to time zone crossing. See the N8421U flight status page for this flight to view local times or setup timezone preferences in your user account.

Time Position Orientation Groundspeed Altitude Reporting Facility
EST Latitude Longitude Course Direction KTS MPH feet Rate Location/Type
Sun 02:04:36 PM 42.9339 -76.0728 North 94 108 2,900  Level Boston Center
Sun 02:04:54 PM 42.9425 -76.0725 North 94 108 3,000 228 Climbing Boston Center
Sun 02:05:55 PM 42.9672 -76.0775 352° North 97 112 3,200 156 Climbing Boston Center
Sun 02:06:11 PM 42.9756 -76.0767 North 97 112 3,200  Level Boston Center
Sun 02:06:55 PM 42.9992 -76.0786 357° North 102 117 3,200  Level Boston Center
Sun 02:07:12 PM 43.0039 -76.0794 353° North 99 114 3,200  Level Boston Center
Sun 02:08:02 PM 43.0264 -76.0814 356° North 95 109 3,200  Level Boston Center
Sun 02:08:13 PM 43.0297 -76.0817 357° North 98 113 3,200  Level Boston Center
Sun 02:09:03 PM 43.0514 -76.0864 351° North 89 102 3,200  Level Boston Center
Sun 02:09:14 PM 43.0544 -76.0867 356° North 94 108 3,200  Level Boston Center
Sun 02:09:57 PM 43.0753 -76.0969 340° North 96 110 3,200  Level Boston Center
Sun 02:10:15 PM 43.0803 -76.0969 360° North 93 107 3,200 98 Level Boston Center
Sun 02:10:58 PM 43.1025 -76.0997 355° North 102 117 3,300 98 Climbing Boston Center
Sun 02:11:16 PM 43.1069 -76.0972 22° Northeast 97 112 3,300  Level Boston Center
Sun 02:11:58 PM 43.1297 -76.0906 12° North 101 116 3,300 -97 Level Boston Center
Sun 02:12:18 PM 43.1353 -76.0869 25° Northeast 102 117 3,200 -98 Descending Boston Center
Sun 02:12:59 PM 43.1572 -76.0672 33° Northeast 114 131 3,200  Level Boston Center
Sun 02:13:19 PM 43.1653 -76.0578 41° Northeast 110 127 3,200  Level Boston Center
Sun 02:14:00 PM 43.1811 -76.0397 40° Northeast 113 130 3,200  Level Boston Center
Sun 02:14:20 PM 43.1900 -76.0319 33° Northeast 112 129 3,200 -200 Level Boston Center
Sun 02:15:00 PM 43.2050 -76.0119 44° Northeast 114 131 3,000 -98 Descending Boston Center
Sun 02:15:21 PM 43.2128 -76.0022 42° Northeast 113 130 3,100  Climbing Boston Center
Sun 02:16:01 PM 43.2253 -75.9803 52° Northeast 113 130 3,000 -98 Descending Boston Center
Sun 02:16:22 PM 43.2350 -75.9703 37° Northeast 114 131 3,000 109 Level Boston Center
Sun 02:16:56 PM 43.2503 -75.9589 28° Northeast 108 124 3,100  Climbing Boston Center
Sun 02:17:24 PM 43.2603 -75.9481 38° Northeast 111 128 3,000  Descending Boston Center
Sun 02:17:56 PM 43.2753 -75.9375 27° Northeast 106 122 3,100 98 Climbing Boston Center
Sun 02:18:25 PM 43.2856 -75.9275 35° Northeast 108 124 3,100 -98 Level Boston Center
Sun 02:18:57 PM 43.2992 -75.9217 17° North 108 124 3,000 -295 Descending Boston Center
Sun 02:19:26 PM 43.3108 -75.9078 41° Northeast 107 123 2,800 -393 Descending Boston Center
Sun 02:19:58 PM 43.3258 -75.9036 11° North 112 129 2,600 -197 Descending Boston Center
Sun 02:20:27 PM 43.3325 -75.9131 314° West 107 123 2,600  Level Boston Center
Sun 02:20:58 PM 43.3208 -75.9081 163° South 91 105 2,600  Level Boston Center
Sun 02:21:29 PM 43.3303 -75.8956 44° Northeast 102 117 2,600 -197 Level Boston Center
Sun 02:21:59 PM 43.3478 -75.8872 19° North 105 121 2,400 -295 Descending Boston Center
Sun 02:22:30 PM 43.3561 -75.8772 41° Northeast 106 122 2,300 -391 Descending Boston Center
Sun 02:23:31 PM 43.3800 -75.8467 43° Northeast 102 117 1,800 -533 Descending Boston Center
Sun 02:24:00 PM 43.3917 -75.8539 336° Northwest 98 113 1,500 -787 Descending Boston Center
Sun 02:24:32 PM 43.3958 -75.8703 289° West 102 117 1,000 -448 Descending Boston Center
Sun 02:25:07 PM 43.3947 -75.8872 265° West 96 110 1,000 387 Level Boston Center
Sun 02:25:34 PM 43.3883 -75.8939 217° Southwest 102 117 1,400 492 Climbing Boston Center
Sun 02:26:08 PM 43.3972 -75.8850 36° Northeast 94 108 1,500 295 Climbing Boston Center
Sun 02:26:35 PM 43.4086 -75.8825 North 101 116 1,700 400 Climbing Boston Center
Sun 02:27:08 PM 43.4200 -75.8892 337° Northwest 79 91 1,900 393 Climbing Boston Center
Sun 02:27:36 PM 43.4292 -75.8933 342° North 87 100 2,100 393 Climbing Boston Center
Sun 02:28:09 PM 43.4411 -75.9044 326° Northwest 83 96 2,300 290 Climbing Boston Center
Sun 02:28:38 PM 43.4500 -75.9075 346° North 84 97 2,400 333 Climbing Boston Center
Sun 02:29:03 PM 43.4628 -75.9144 338° Northwest 87 100 2,600 393 Climbing Boston Center
Sun 02:29:39 PM 43.4744 -75.9147 359° North 85 98 2,800 329 Climbing Boston Center
Sun 02:30:16 PM 43.4917 -75.9206 346° North 95 109 3,000 197 Climbing Boston Center
Sun 02:30:40 PM 43.5008 -75.9228 350° North 90 104 3,000 98 Level Boston Center
Sun 02:31:17 PM 43.5172 -75.9344 333° Northwest 100 115 3,100 97 Climbing Boston Center
Sun 02:31:42 PM 43.5267 -75.9356 355° North 95 109 3,100 98 Level Boston Center
Sun 02:32:18 PM 43.5417 -75.9539 318° Northwest 97 112 3,200 -125 Climbing Boston Center
Sun 02:33:18 PM 43.5547 -75.9786 306° West 90 104 2,900 -595 Descending Boston Center
Sun 02:34:19 PM 43.5536 -76.0106 267° West 88 101 2,000 -783 Descending Boston Center
Sun 02:35:13 PM 43.5592 -76.0417 284° West 89 102 1,400 -261 Descending Boston Center
Sun 02:36:14 PM 43.5753 -76.0350 17° North 94 108 1,500 295 Climbing Boston Center
Sun 02:37:15 PM 43.5517 -76.0364 182° South 91 105 2,000 496 Climbing Boston Center
Sun 02:38:15 PM 43.5292 -76.0175 149° Southeast 92 106 2,500 500 Climbing Boston Center

Login

Don't have an account? Register now (free) for customized features, flight alerts, and more!